Time;durP1;ratioP1;P1;durP2;ratioP2;P2;SDS_P1;SDS_P2;PMS_P1;PMS_P2;Temp;Humidity;BMP_temperature;BMP_pressure;BME280_temperature;BME280_humidity;BME280_pressure;Samples;Min_cycle;Max_cycle;Signal;HPM_P1;HPM_P2
2022/11/19 00:01:04;;;;;;;1.17;1.00;;;;;;;12.92;77.09;93891.44;5073805;28;20208;-72
2022/11/19 00:03:40;;;;;;;0.70;0.70;;;;;;;12.88;75.96;93891.44;5074072;28;20208;-72
2022/11/19 00:06:10;;;;;;;0.80;0.80;;;;;;;12.85;74.88;93886.69;5073964;28;20188;-72
2022/11/19 00:08:39;;;;;;;1.00;0.75;;;;;;;12.88;74.95;93885.88;5074098;28;20208;-71
2022/11/19 00:11:08;;;;;;;0.88;0.80;;;;;;;12.88;74.49;93893.41;5073812;28;20208;-72
2022/11/19 00:13:36;;;;;;;0.80;0.80;;;;;;;12.89;74.93;93889.44;5073454;28;20221;-72
2022/11/19 00:16:04;;;;;;;0.80;0.80;;;;;;;12.86;75.18;93898.56;5074019;28;20197;-72
2022/11/19 00:18:34;;;;;;;0.73;0.73;;;;;;;12.82;74.64;93903.28;5073756;28;20232;-72
2022/11/19 00:21:11;;;;;;;0.80;0.80;;;;;;;12.81;74.89;93910.78;5074052;28;20204;-73
2022/11/19 00:23:40;;;;;;;0.90;0.90;;;;;;;12.81;75.26;93910.00;5073810;28;20200;-72
2022/11/19 00:26:13;;;;;;;0.85;0.80;;;;;;;12.76;74.79;93908.44;5073907;28;20209;-73
2022/11/19 00:28:40;;;;;;;0.80;0.80;;;;;;;12.76;75.51;93897.38;5073396;28;20640;-72
2022/11/19 00:31:10;;;;;;;2.90;2.70;;;;;;;12.75;75.25;93909.63;5073543;28;20201;-72
2022/11/19 00:33:40;;;;;;;2.42;2.22;;;;;;;12.70;75.71;93923.84;5075247;28;20201;-72
2022/11/19 00:36:11;;;;;;;2.00;1.90;;;;;;;12.68;75.82;93915.94;5077935;28;20193;-72
2022/11/19 00:38:38;;;;;;;9.93;9.18;;;;;;;12.68;76.25;93927.00;5077542;28;20193;-72
2022/11/19 00:41:05;;;;;;;12.00;11.00;;;;;;;12.68;76.07;93932.53;5077420;28;20192;-73
2022/11/19 00:43:49;;;;;;;8.77;8.10;;;;;;;12.60;76.46;93942.03;5076798;28;20211;-73
2022/11/19 00:46:18;;;;;;;5.50;5.10;;;;;;;12.46;77.19;93940.03;5077318;28;20200;-72
2022/11/19 00:48:46;;;;;;;5.88;5.47;;;;;;;12.45;77.20;93921.81;5077178;28;20193;-72
2022/11/19 00:51:15;;;;;;;4.07;3.78;;;;;;;12.44;77.33;93917.47;5078062;28;20200;-72
2022/11/19 00:53:46;;;;;;;3.45;3.20;;;;;;;12.46;76.94;93937.25;5076731;28;20205;-72
2022/11/19 00:56:18;;;;;;;2.50;2.28;;;;;;;12.47;76.77;93940.81;5077563;28;20200;-72
2022/11/19 00:58:47;;;;;;;1.95;1.60;;;;;;;12.53;76.84;93933.72;5077388;28;20232;-72
2022/11/19 01:01:17;;;;;;;1.27;1.20;;;;;;;12.53;76.20;93923.44;5074899;28;20217;-73
2022/11/19 01:03:46;;;;;;;1.00;1.00;;;;;;;12.55;76.28;93933.31;5076592;28;20205;-72
2022/11/19 01:06:22;;;;;;;1.40;1.30;;;;;;;12.51;76.17;93934.09;5077173;28;20217;-73
2022/11/19 01:08:54;;;;;;;1.35;1.05;;;;;;;12.45;76.34;93945.94;5076806;28;20257;-72
2022/11/19 01:11:24;;;;;;;1.13;1.02;;;;;;;12.41;76.42;93934.84;5076644;28;20598;-72
2022/11/19 01:13:53;;;;;;;0.98;0.90;;;;;;;12.45;76.30;93943.16;5076744;28;20209;-71
2022/11/19 01:16:23;;;;;;;0.90;0.90;;;;;;;12.47;75.86;93944.34;5076557;28;20197;-72
2022/11/19 01:18:50;;;;;;;0.98;0.98;;;;;;;12.51;75.70;93944.38;5076491;28;20240;-72
2022/11/19 01:21:25;;;;;;;1.00;0.90;;;;;;;12.53;75.09;93945.56;5076360;28;20212;-72
2022/11/19 01:23:52;;;;;;;1.30;0.98;;;;;;;12.53;74.71;93944.78;5076748;28;20204;-72
2022/11/19 01:26:21;;;;;;;1.00;1.00;;;;;;;12.56;74.80;93948.72;5076651;28;20205;-72
2022/11/19 01:28:49;;;;;;;0.90;0.90;;;;;;;12.56;74.31;93946.72;5076139;28;20200;-72
2022/11/19 01:31:19;;;;;;;1.00;1.00;;;;;;;12.57;74.24;93953.88;5076305;28;20204;-72
2022/11/19 01:33:48;;;;;;;1.05;0.98;;;;;;;12.57;74.37;93934.50;5076352;28;20197;-72
2022/11/19 01:36:17;;;;;;;0.90;0.90;;;;;;;12.64;73.41;93937.28;5076365;28;20197;-72
2022/11/19 01:38:49;;;;;;;0.93;0.90;;;;;;;12.66;72.75;93939.66;5076267;28;20235;-72
2022/11/19 01:41:17;;;;;;;1.73;1.38;;;;;;;12.69;72.26;93936.88;5076212;28;20207;-72
2022/11/19 01:43:49;;;;;;;1.67;0.85;;;;;;;12.70;72.40;93935.69;5076162;28;20200;-72
2022/11/19 01:46:19;;;;;;;1.20;1.10;;;;;;;12.72;72.18;93940.84;5076129;28;20266;-72
2022/11/19 01:48:51;;;;;;;0.70;0.70;;;;;;;12.73;71.60;93951.50;5076380;28;20196;-72
2022/11/19 01:51:22;;;;;;;1.17;0.82;;;;;;;12.73;71.85;93943.22;5075850;28;20197;-72
2022/11/19 01:53:57;;;;;;;0.95;0.80;;;;;;;12.73;71.83;93939.66;5075759;28;20204;-72
2022/11/19 01:56:28;;;;;;;0.88;0.85;;;;;;;12.73;71.68;93939.66;5075600;28;20197;-72
2022/11/19 01:58:59;;;;;;;1.08;0.75;;;;;;;12.71;71.54;93942.81;5076307;28;20212;-72
2022/11/19 02:01:28;;;;;;;1.25;0.98;;;;;;;12.71;71.81;93936.50;5075658;28;20200;-72
2022/11/19 02:03:55;;;;;;;0.80;0.80;;;;;;;12.67;71.93;93944.81;5075713;28;20532;-72
2022/11/19 02:06:24;;;;;;;1.25;0.73;;;;;;;12.66;71.98;93939.66;5075675;28;20201;-72
2022/11/19 02:08:52;;;;;;;1.10;1.05;;;;;;;12.68;72.18;93934.53;5075502;28;20250;-72
2022/11/19 02:11:33;;;;;;;1.05;0.95;;;;;;;12.67;71.88;93938.44;5075928;28;20204;-72
2022/11/19 02:14:13;;;;;;;1.00;1.00;;;;;;;12.64;72.22;93933.72;5075645;28;20189;-72
2022/11/19 02:16:47;;;;;;;0.90;0.90;;;;;;;12.60;72.62;93942.03;5075463;28;20196;-72
2022/11/19 02:19:40;;;;;;;1.80;0.90;;;;;;;12.59;72.82;93948.72;5075129;28;20232;-72
2022/11/19 02:22:22;;;;;;;1.08;0.95;;;;;;;12.56;72.99;93943.97;5075472;28;20208;-72
2022/11/19 02:24:58;;;;;;;1.95;1.10;;;;;;;12.52;73.00;93957.00;5075510;28;20193;-72
2022/11/19 02:27:58;;;;;;;1.55;1.08;;;;;;;12.47;72.95;93960.16;5075306;28;20200;-72
2022/11/19 02:30:29;;;;;;;1.45;1.25;;;;;;;12.44;73.31;93942.38;5075060;28;20212;-72
2022/11/19 02:32:59;;;;;;;1.67;1.10;;;;;;;12.45;73.18;93957.00;5075240;28;20201;-72
2022/11/19 02:35:40;;;;;;;1.40;1.20;;;;;;;12.46;73.59;93961.34;5075073;28;20224;-72
2022/11/19 02:38:19;;;;;;;1.45;1.17;;;;;;;12.45;73.24;93971.59;5075304;28;20197;-72
2022/11/19 02:40:48;;;;;;;1.58;1.25;;;;;;;12.45;73.34;93968.06;5075279;28;20192;-72
2022/11/19 02:43:21;;;;;;;2.90;1.65;;;;;;;12.40;73.54;93971.22;5074727;28;20204;-72
2022/11/19 02:45:53;;;;;;;2.70;1.60;;;;;;;12.36;74.10;93973.97;5075214;28;20207;-72
2022/11/19 02:48:25;;;;;;;2.40;1.80;;;;;;;12.34;74.03;93979.06;5074977;28;20189;-72
2022/11/19 02:50:56;;;;;;;2.10;1.30;;;;;;;12.31;74.78;93981.84;5074691;28;20197;-72
2022/11/19 02:53:24;;;;;;;1.67;1.30;;;;;;;12.27;74.54;93988.16;5074462;28;20196;-72
2022/11/19 03:04:32;;;;;;;1.95;1.40;;;;;;;11.78;76.89;94019.09;5075083;28;20608;-72
2022/11/19 03:07:03;;;;;;;1.85;1.40;;;;;;;11.75;77.11;94034.47;5074991;28;20255;-72
2022/11/19 03:09:37;;;;;;;1.92;1.60;;;;;;;11.77;77.41;94034.09;5058300;28;20279;-72
2022/11/19 03:12:13;;;;;;;1.85;1.58;;;;;;;11.76;77.77;94035.25;5074629;28;20215;-72
2022/11/19 03:17:51;;;;;;;3.08;2.10;;;;;;;11.75;77.55;94030.91;5074931;28;20201;-72
2022/11/19 03:20:24;;;;;;;2.15;1.95;;;;;;;11.74;77.98;94049.47;5077898;28;20204;-72
2022/11/19 03:22:59;;;;;;;3.20;1.75;;;;;;;11.72;77.60;94043.50;5077915;28;20204;-72
2022/11/19 03:25:32;;;;;;;2.30;2.00;;;;;;;11.66;77.88;94039.53;5077732;28;20188;-72
2022/11/19 03:28:03;;;;;;;2.63;1.77;;;;;;;11.64;78.74;94047.41;5077655;28;20199;-73
2022/11/19 03:30:32;;;;;;;2.50;1.75;;;;;;;11.65;78.40;94051.75;5077832;28;20257;-73
2022/11/19 03:33:08;;;;;;;2.45;1.90;;;;;;;11.69;78.21;94062.81;5078030;28;20200;-72
2022/11/19 03:35:40;;;;;;;2.33;1.70;;;;;;;11.68;78.04;94056.50;5077184;28;20219;-72
2022/11/19 03:38:13;;;;;;;1.70;1.60;;;;;;;11.68;78.11;94062.03;5077594;28;20601;-72
2022/11/19 03:40:43;;;;;;;1.60;1.50;;;;;;;11.62;78.37;94066.34;5077516;28;20616;-72
2022/11/19 03:43:13;;;;;;;1.98;1.77;;;;;;;11.65;78.28;94056.47;5077682;28;20196;-72
2022/11/19 03:45:46;;;;;;;2.17;1.90;;;;;;;11.63;78.73;94075.44;5077554;28;20200;-72
2022/11/19 03:48:22;;;;;;;2.00;1.80;;;;;;;11.58;78.47;94068.28;5078154;28;20188;-73
2022/11/19 03:50:54;;;;;;;1.88;1.63;;;;;;;11.55;79.15;94075.38;5077534;28;20300;-72
2022/11/19 03:53:23;;;;;;;2.40;2.20;;;;;;;11.54;79.23;94071.00;5077504;28;20188;-72
2022/11/19 03:55:54;;;;;;;2.33;2.10;;;;;;;11.50;79.45;94070.19;5077443;28;20215;-72
2022/11/19 03:58:24;;;;;;;3.05;2.00;;;;;;;11.50;79.53;94081.22;5077822;28;20196;-72
2022/11/19 04:00:52;;;;;;;2.10;2.00;;;;;;;11.47;79.38;94086.72;5077414;28;20203;-72
2022/11/19 04:03:23;;;;;;;2.83;1.95;;;;;;;11.47;79.91;94083.97;5077382;28;20210;-72
2022/11/19 04:05:51;;;;;;;1.98;1.88;;;;;;;11.47;79.52;94078.44;5077614;28;20212;-72
2022/11/19 04:08:21;;;;;;;2.20;2.00;;;;;;;11.42;79.93;94081.56;5079298;28;20196;-72
2022/11/19 04:10:53;;;;;;;2.25;1.90;;;;;;;11.41;79.99;94088.28;5081347;28;20192;-72
2022/11/19 04:13:20;;;;;;;2.30;1.90;;;;;;;11.41;80.20;94102.06;5081411;28;20220;-72
2022/11/19 04:15:48;;;;;;;2.30;2.20;;;;;;;11.40;80.01;94093.00;5081358;28;20208;-72
2022/11/19 04:18:17;;;;;;;3.05;2.60;;;;;;;11.33;79.95;94102.03;5081302;28;20236;-72
2022/11/19 04:20:48;;;;;;;3.70;2.50;;;;;;;11.32;79.88;94110.66;5080612;28;20307;-73
2022/11/19 04:23:14;;;;;;;2.42;2.22;;;;;;;11.32;80.11;94111.44;5080774;28;20204;-73
2022/11/19 04:25:46;;;;;;;2.40;2.20;;;;;;;11.30;80.11;94107.50;5081075;28;20201;-73
2022/11/19 04:28:13;;;;;;;2.47;2.28;;;;;;;11.28;80.26;94107.88;5081018;28;20218;-72
2022/11/19 04:30:40;;;;;;;2.92;2.70;;;;;;;11.22;80.17;94116.88;5080828;28;20208;-71
2022/11/19 04:33:09;;;;;;;2.40;2.30;;;;;;;11.18;80.46;94114.06;5080513;28;20295;-73
2022/11/19 04:35:35;;;;;;;3.25;2.95;;;;;;;11.14;80.21;94117.97;5080899;28;20562;-71
2022/11/19 04:38:06;;;;;;;3.10;2.90;;;;;;;11.14;80.50;94123.50;5081009;28;20499;-71
2022/11/19 04:40:33;;;;;;;3.15;2.88;;;;;;;11.09;80.54;94133.72;5081042;28;20193;-72
2022/11/19 04:43:05;;;;;;;3.72;3.28;;;;;;;11.08;80.71;94145.16;5080401;28;20205;-71
2022/11/19 04:45:33;;;;;;;3.65;3.35;;;;;;;11.13;80.63;94147.56;5080640;28;20204;-72
2022/11/19 04:48:03;;;;;;;3.58;2.70;;;;;;;11.14;81.19;94148.34;5080469;28;20196;-72
2022/11/19 04:50:29;;;;;;;3.45;3.10;;;;;;;11.16;81.21;94148.78;5080478;28;20214;-72
2022/11/19 04:52:59;;;;;;;2.88;2.67;;;;;;;11.15;81.08;94147.16;5080617;28;20189;-72
2022/11/19 04:55:30;;;;;;;4.05;3.75;;;;;;;11.15;81.22;94155.44;5080294;28;20231;-71
2022/11/19 04:58:01;;;;;;;3.42;3.13;;;;;;;11.14;81.25;94160.16;5080353;28;20189;-71
2022/11/19 05:00:32;;;;;;;3.67;3.35;;;;;;;11.11;81.18;94162.91;5080122;28;20514;-71
2022/11/19 05:02:59;;;;;;;4.10;3.70;;;;;;;11.08;81.18;94170.78;5080394;28;20208;-72
2022/11/19 05:05:26;;;;;;;4.05;3.65;;;;;;;11.04;80.89;94180.97;5080236;28;20211;-71
2022/11/19 05:07:54;;;;;;;6.13;4.50;;;;;;;11.02;80.97;94186.06;5080747;28;20192;-71
2022/11/19 05:10:23;;;;;;;6.35;5.82;;;;;;;11.06;81.33;94191.63;5080258;28;20624;-72
2022/11/19 05:12:54;;;;;;;5.82;5.20;;;;;;;11.08;81.57;94201.13;5079921;28;20261;-72
2022/11/19 05:15:21;;;;;;;5.40;4.95;;;;;;;11.09;81.36;94215.72;5079987;28;20607;-72
2022/11/19 05:17:48;;;;;;;6.43;5.78;;;;;;;11.09;81.54;94215.72;5079822;28;20212;-72
2022/11/19 05:20:17;;;;;;;4.68;4.28;;;;;;;11.13;80.91;94229.56;5078898;28;20204;-72
2022/11/19 05:22:46;;;;;;;4.05;3.75;;;;;;;11.14;81.08;94225.63;5080229;28;20185;-71
2022/11/19 05:25:13;;;;;;;3.88;3.47;;;;;;;11.12;81.47;94231.53;5080048;28;20192;-71
2022/11/19 05:27:40;;;;;;;6.40;5.90;;;;;;;11.14;80.89;94234.69;5079864;28;20208;-71
2022/11/19 05:30:13;;;;;;;4.63;4.32;;;;;;;11.09;81.03;94227.53;5080320;28;20195;-71
2022/11/19 05:32:42;;;;;;;4.88;4.38;;;;;;;11.12;81.20;94231.53;5078950;28;20541;-71
2022/11/19 05:35:11;;;;;;;4.43;4.05;;;;;;;11.07;81.16;94240.13;5079579;28;20193;-71
2022/11/19 05:37:37;;;;;;;3.80;3.50;;;;;;;11.01;81.24;94250.72;5079790;28;20208;-71
2022/11/19 05:40:05;;;;;;;4.10;3.80;;;;;;;11.05;81.58;94253.50;5080108;28;20203;-72
2022/11/19 05:42:35;;;;;;;4.30;3.90;;;;;;;11.04;80.74;94263.75;5079441;28;20200;-72
2022/11/19 05:45:08;;;;;;;6.57;5.97;;;;;;;11.02;80.54;94277.13;5079536;28;20196;-72
2022/11/19 05:47:40;;;;;;;5.50;5.00;;;;;;;11.02;81.05;94285.41;5079311;28;20203;-73
2022/11/19 05:50:10;;;;;;;6.00;5.50;;;;;;;11.01;80.94;94288.56;5079754;28;20189;-72
2022/11/19 05:52:38;;;;;;;5.68;5.13;;;;;;;11.02;80.73;94287.38;5079896;28;20208;-72
2022/11/19 05:55:08;;;;;;;5.07;4.68;;;;;;;11.05;80.51;94278.34;5079562;28;20206;-72
2022/11/19 05:57:37;;;;;;;4.97;4.57;;;;;;;11.06;80.50;94286.25;5079264;28;20528;-72
2022/11/19 06:00:06;;;;;;;4.82;4.32;;;;;;;11.09;80.90;94282.75;5079348;28;20196;-72
2022/11/19 06:02:39;;;;;;;5.35;4.85;;;;;;;11.16;80.68;94287.56;5079461;28;20200;-72
2022/11/19 06:05:11;;;;;;;5.40;4.53;;;;;;;11.20;80.77;94287.59;5079221;28;20207;-72
2022/11/19 06:07:41;;;;;;;6.70;5.15;;;;;;;11.19;80.26;94295.09;5079117;28;20188;-72
2022/11/19 06:10:10;;;;;;;7.20;5.35;;;;;;;11.15;80.79;94304.47;5079574;28;20209;-72
2022/11/19 06:12:40;;;;;;;6.95;6.35;;;;;;;11.08;80.37;94313.47;5078887;28;20292;-72
2022/11/19 06:15:08;;;;;;;7.65;6.80;;;;;;;10.98;80.81;94311.38;5078811;28;20224;-72
2022/11/19 06:17:39;;;;;;;8.15;7.35;;;;;;;10.95;81.09;94315.66;5078622;28;20211;-72
2022/11/19 06:20:09;;;;;;;8.25;7.45;;;;;;;10.93;81.02;94323.53;5079283;28;20200;-72
2022/11/19 06:22:40;;;;;;;9.43;6.20;;;;;;;10.91;81.18;94338.84;5078857;28;20604;-72
2022/11/19 06:25:09;;;;;;;6.40;5.85;;;;;;;10.88;81.13;94339.59;5078525;28;20227;-72
2022/11/19 06:27:41;;;;;;;7.10;6.35;;;;;;;10.87;81.54;94335.25;5078434;28;20196;-72
2022/11/19 06:30:10;;;;;;;6.88;6.15;;;;;;;10.89;81.75;94344.72;5078733;28;20258;-71
2022/11/19 06:32:43;;;;;;;8.55;7.15;;;;;;;10.90;81.98;94351.88;5078729;28;20200;-71
2022/11/19 06:35:12;;;;;;;9.10;8.30;;;;;;;10.86;82.18;94353.78;5078264;28;20185;-71
2022/11/19 06:37:39;;;;;;;18.95;17.15;;;;;;;10.80;82.12;94358.00;5078393;28;20193;-71
2022/11/19 06:40:08;;;;;;;19.58;17.67;;;;;;;10.84;81.81;94356.88;5096437;28;20624;-71
2022/11/19 06:42:37;;;;;;;18.60;16.88;;;;;;;10.87;81.70;94366.41;5078178;28;20203;-70
2022/11/19 06:45:09;;;;;;;16.73;14.98;;;;;;;10.90;82.22;94373.16;5078396;28;20202;-70
2022/11/19 06:47:40;;;;;;;12.65;11.50;;;;;;;10.87;82.02;94374.66;5078255;28;20729;-70
2022/11/19 06:50:12;;;;;;;12.43;11.23;;;;;;;10.92;82.05;94379.84;5078873;28;20191;-70
2022/11/19 06:52:40;;;;;;;17.45;15.85;;;;;;;10.94;82.13;94388.56;5078560;28;20192;-70
2022/11/19 06:55:10;;;;;;;16.25;14.77;;;;;;;11.00;81.79;94386.28;5078275;28;20207;-70
2022/11/19 06:57:37;;;;;;;15.10;13.85;;;;;;;11.11;82.17;94390.00;5077633;28;20535;-70
2022/11/19 07:00:07;;;;;;;19.98;18.25;;;;;;;11.25;82.01;94386.63;5078605;28;20193;-70
2022/11/19 07:02:34;;;;;;;16.60;15.20;;;;;;;11.39;81.46;94392.34;5078173;28;20204;-71
2022/11/19 07:05:02;;;;;;;11.18;10.18;;;;;;;11.48;80.96;94398.38;5078223;28;20199;-71
2022/11/19 07:07:31;;;;;;;18.33;16.83;;;;;;;11.53;80.74;94397.25;5077881;28;20195;-71
2022/11/19 07:09:59;;;;;;;39.40;36.10;;;;;;;11.61;81.09;94396.16;5078245;28;20203;-71
2022/11/19 07:12:27;;;;;;;46.25;42.22;;;;;;;11.75;80.97;94404.63;5077990;28;20204;-70
2022/11/19 07:14:54;;;;;;;40.45;37.03;;;;;;;11.89;81.08;94401.28;5078269;28;20185;-72
2022/11/19 07:17:22;;;;;;;24.00;21.88;;;;;;;12.04;80.65;94399.47;5078063;28;20224;-71
2022/11/19 07:19:53;;;;;;;19.55;17.85;;;;;;;12.17;80.12;94402.78;5073908;28;20236;-71
2022/11/19 07:22:19;;;;;;;16.23;14.80;;;;;;;12.27;79.09;94408.41;5074631;28;20295;-70
2022/11/19 07:24:50;;;;;;;14.73;11.77;;;;;;;12.37;78.97;94417.19;5074741;28;20209;-70
2022/11/19 07:27:17;;;;;;;12.43;11.32;;;;;;;12.49;79.19;94403.06;5074044;28;20227;-70
2022/11/19 07:29:45;;;;;;;8.90;8.00;;;;;;;12.59;79.04;94396.03;5074029;28;20193;-70
2022/11/19 07:32:13;;;;;;;9.05;8.15;;;;;;;12.70;78.84;94396.94;5074941;28;20251;-70
2022/11/19 07:34:42;;;;;;;7.93;7.15;;;;;;;12.82;78.43;94396.66;5074024;28;20208;-70
2022/11/19 07:37:10;;;;;;;7.97;7.28;;;;;;;12.92;78.04;94397.88;5073838;28;20209;-70
2022/11/19 07:39:37;;;;;;;7.65;7.00;;;;;;;13.01;77.67;94385.31;5074151;28;20216;-70
2022/11/19 07:44:54;;;;;;;7.15;6.55;;;;;;;13.15;76.51;94403.22;5074523;28;20186;-70
2022/11/19 07:47:23;;;;;;;7.85;7.15;;;;;;;13.24;76.00;94387.06;5074080;28;20645;-69
2022/11/19 07:49:51;;;;;;;8.13;7.43;;;;;;;13.31;75.82;94398.19;5074229;28;20612;-69
2022/11/19 07:52:19;;;;;;;7.47;6.88;;;;;;;13.38;76.01;94397.44;5074616;28;20192;-70
2022/11/19 07:54:47;;;;;;;7.28;6.68;;;;;;;13.48;75.31;94389.19;5074171;28;20543;-70
2022/11/19 07:57:21;;;;;;;7.55;6.95;;;;;;;13.63;75.41;94401.13;5074160;28;20216;-70
2022/11/19 07:59:49;;;;;;;8.35;7.65;;;;;;;13.74;74.79;94409.50;5074363;28;20204;-70
2022/11/19 08:02:16;;;;;;;8.77;7.97;;;;;;;13.87;74.24;94412.69;5073606;28;20629;-70
2022/11/19 08:04:42;;;;;;;8.32;7.63;;;;;;;13.95;73.91;94417.91;5073831;28;20201;-70
2022/11/19 08:07:12;;;;;;;8.48;7.68;;;;;;;14.09;74.02;94414.41;5074258;28;20201;-70
2022/11/19 08:09:40;;;;;;;9.63;8.82;;;;;;;14.21;73.59;94422.34;5073541;28;20197;-70
2022/11/19 08:12:09;;;;;;;10.07;9.18;;;;;;;14.28;72.57;94429.09;5074391;28;20204;-70
2022/11/19 08:14:42;;;;;;;10.20;9.30;;;;;;;14.33;72.89;94429.50;5074095;28;20204;-70
2022/11/19 08:19:54;;;;;;;6.20;5.70;;;;;;;14.55;72.30;94416.50;5073583;28;20335;-69
2022/11/19 08:22:22;;;;;;;5.20;4.80;;;;;;;14.57;71.61;94432.78;5074252;28;20196;-69
2022/11/19 08:24:52;;;;;;;4.88;4.47;;;;;;;14.56;71.94;94426.44;5073965;28;20251;-69
2022/11/19 08:27:20;;;;;;;5.47;4.97;;;;;;;14.60;71.58;94426.44;5073501;28;20201;-69
2022/11/19 08:29:49;;;;;;;5.43;4.97;;;;;;;14.66;71.78;94428.41;5074346;28;20204;-69
2022/11/19 08:32:17;;;;;;;5.20;4.70;;;;;;;14.70;72.15;94436.72;5073559;28;20197;-73
2022/11/19 08:34:44;;;;;;;4.78;4.38;;;;;;;14.71;72.17;94432.00;5073324;28;20242;-69
2022/11/19 08:37:13;;;;;;;7.43;6.78;;;;;;;14.60;71.38;94429.22;5073540;28;20563;-68
2022/11/19 08:39:41;;;;;;;10.40;9.35;;;;;;;14.54;71.36;94428.00;5073614;28;20254;-70
2022/11/19 08:45:00;;;;;;;30.30;27.90;;;;;;;14.45;72.05;94448.56;5073704;28;20265;-68
2022/11/19 08:47:28;;;;;;;24.95;22.95;;;;;;;14.49;72.38;94443.03;5073144;28;20451;-70
2022/11/19 08:49:55;;;;;;;16.65;15.25;;;;;;;14.48;72.33;94433.09;5057637;28;20195;-68
2022/11/19 08:52:22;;;;;;;12.15;11.10;;;;;;;14.49;72.29;94440.25;5074677;28;20190;-69
2022/11/19 08:54:52;;;;;;;12.30;11.30;;;;;;;14.58;71.76;94431.56;5074688;28;20648;-69
2022/11/19 08:57:19;;;;;;;11.32;10.27;;;;;;;14.78;72.47;94438.34;5076990;28;20378;-69
2022/11/19 08:59:46;;;;;;;12.57;11.48;;;;;;;14.98;71.92;94444.31;5077511;28;20197;-68
2022/11/19 09:02:14;;;;;;;12.68;11.48;;;;;;;15.12;71.18;94440.72;5077732;28;20204;-69
2022/11/19 09:04:40;;;;;;;11.15;10.05;;;;;;;15.25;70.41;94453.03;5077153;28;20201;-71
2022/11/19 09:07:07;;;;;;;10.10;9.10;;;;;;;15.39;69.54;94460.53;5078253;28;20212;-71
2022/11/19 09:09:34;;;;;;;10.00;9.20;;;;;;;15.40;68.88;94453.81;5077005;28;20304;-69
2022/11/19 09:12:01;;;;;;;7.57;6.97;;;;;;;15.45;67.75;94450.63;5077310;28;20197;-69
2022/11/19 09:14:27;;;;;;;8.98;8.27;;;;;;;15.56;68.05;94453.38;5076728;28;20201;-69
2022/11/19 09:16:57;;;;;;;8.07;7.38;;;;;;;15.70;67.08;94464.50;5076560;28;20216;-69
2022/11/19 09:19:25;;;;;;;9.25;8.45;;;;;;;15.81;66.52;94467.28;5076483;28;20262;-69
2022/11/19 09:21:53;;;;;;;9.73;8.93;;;;;;;16.01;65.44;94450.91;5076777;28;20216;-68
2022/11/19 09:24:20;;;;;;;9.10;8.23;;;;;;;16.21;65.62;94440.91;5077038;28;20197;-68
2022/11/19 09:26:50;;;;;;;8.80;8.00;;;;;;;16.29;64.96;94442.44;5076273;28;20629;-68
2022/11/19 09:29:18;;;;;;;8.85;8.05;;;;;;;16.37;65.57;94444.00;5076691;28;20535;-68
2022/11/19 09:31:45;;;;;;;8.05;7.25;;;;;;;16.28;64.83;94434.50;5076399;28;20645;-68
2022/11/19 09:34:13;;;;;;;7.82;7.13;;;;;;;15.98;64.02;94438.63;5076352;28;20197;-68
2022/11/19 09:36:45;;;;;;;8.15;7.45;;;;;;;15.81;64.68;94429.13;5076107;28;20224;-68
2022/11/19 09:39:13;;;;;;;8.55;7.88;;;;;;;16.02;64.98;94430.25;5076533;28;20197;-68
2022/11/19 09:41:48;;;;;;;8.13;7.22;;;;;;;16.46;64.95;94420.50;5076027;28;20197;-68
2022/11/19 09:44:32;;;;;;;8.32;7.63;;;;;;;16.72;62.84;94408.81;5076345;28;20581;-68
2022/11/19 09:47:10;;;;;;;7.32;6.72;;;;;;;16.97;62.45;94399.50;5076443;28;20197;-68
2022/11/19 09:49:39;;;;;;;7.22;6.55;;;;;;;17.06;61.86;94394.25;5076060;28;20192;-68
2022/11/19 09:52:10;;;;;;;7.90;7.25;;;;;;;16.93;61.48;94379.25;5076003;28;20189;-68
2022/11/19 09:54:47;;;;;;;7.13;6.53;;;;;;;16.83;61.59;94383.69;5076651;28;20204;-68
2022/11/19 09:57:18;;;;;;;5.80;5.30;;;;;;;16.60;61.37;94384.22;5075613;28;20212;-68
2022/11/19 09:59:48;;;;;;;4.00;3.70;;;;;;;16.59;62.72;94380.66;5076636;28;20197;-68
2022/11/19 10:02:17;;;;;;;4.45;4.15;;;;;;;16.98;62.24;94370.44;5075638;28;20208;-68
2022/11/19 10:04:44;;;;;;;4.22;3.65;;;;;;;17.30;60.39;94376.50;5075849;28;20197;-68
2022/11/19 10:07:18;;;;;;;6.38;4.10;;;;;;;17.61;59.01;94373.81;5075659;28;20204;-68
2022/11/19 10:09:55;;;;;;;4.95;4.28;;;;;;;17.60;58.95;94375.00;5075322;28;20647;-68
2022/11/19 10:12:37;;;;;;;6.65;5.03;;;;;;;17.49;59.30;94357.59;5075559;28;20192;-68
2022/11/19 10:15:13;;;;;;;6.38;4.95;;;;;;;17.74;59.07;94352.53;5075579;28;20590;-68
2022/11/19 10:17:47;;;;;;;6.13;5.22;;;;;;;18.02;58.61;94356.22;5075630;28;20230;-68
2022/11/19 10:20:23;;;;;;;4.97;4.50;;;;;;;18.08;58.46;94362.13;5075121;28;20232;-68
2022/11/19 10:22:56;;;;;;;5.30;4.68;;;;;;;17.83;57.65;94370.78;5075462;28;20525;-68
2022/11/19 10:25:27;;;;;;;5.47;4.85;;;;;;;17.71;58.05;94370.09;5075006;28;20205;-68
2022/11/19 10:27:55;;;;;;;5.57;4.75;;;;;;;17.54;58.53;94371.13;5075518;28;20259;-68
2022/11/19 10:30:24;;;;;;;4.35;3.97;;;;;;;17.29;58.71;94365.78;5075144;28;20205;-68
2022/11/19 10:32:55;;;;;;;4.75;4.20;;;;;;;17.06;59.48;94361.59;5075514;28;20196;-68
2022/11/19 10:35:25;;;;;;;5.25;4.18;;;;;;;16.90;59.65;94358.56;5075110;28;20201;-69
2022/11/19 10:37:57;;;;;;;4.85;4.43;;;;;;;16.78;60.59;94357.09;5075459;28;20545;-69
2022/11/19 10:40:26;;;;;;;5.00;4.32;;;;;;;16.76;60.95;94356.69;5075238;28;20204;-69
2022/11/19 10:42:54;;;;;;;4.63;4.22;;;;;;;16.77;61.14;94351.91;5074919;28;20193;-69
2022/11/19 10:45:22;;;;;;;3.20;2.90;;;;;;;16.47;60.38;94346.94;5074757;28;20201;-69
2022/11/19 10:47:52;;;;;;;3.65;2.53;;;;;;;16.33;61.08;94348.59;5074772;28;20201;-69
2022/11/19 10:50:20;;;;;;;3.03;2.72;;;;;;;16.37;60.78;94340.22;5074765;28;20641;-69
2022/11/19 10:52:50;;;;;;;6.18;3.60;;;;;;;16.26;61.00;94336.72;5074485;28;20196;-69
2022/11/19 10:55:23;;;;;;;4.70;3.22;;;;;;;16.12;61.49;94332.03;5074495;28;20207;-69
2022/11/19 10:57:50;;;;;;;3.65;3.35;;;;;;;16.06;61.76;94339.25;5074790;28;20232;-69
2022/11/19 11:00:18;;;;;;;3.58;3.28;;;;;;;16.02;62.04;94344.81;5075422;28;20204;-69
2022/11/19 11:02:47;;;;;;;5.93;3.17;;;;;;;16.15;62.27;94341.56;5074737;28;20207;-69
2022/11/19 11:05:16;;;;;;;4.50;4.10;;;;;;;16.23;62.07;94351.44;5074734;28;20195;-69
2022/11/19 11:07:53;;;;;;;4.97;3.92;;;;;;;16.23;62.74;94343.09;5074514;28;20200;-69
2022/11/19 11:10:31;;;;;;;3.35;3.15;;;;;;;16.21;61.63;94346.31;5075024;28;20189;-69
2022/11/19 11:15:50;;;;;;;3.10;2.90;;;;;;;16.33;61.65;94336.69;5074240;28;20230;-69
2022/11/19 11:18:18;;;;;;;3.40;3.10;;;;;;;16.54;61.36;94330.19;5073327;28;20260;-69
2022/11/19 11:20:47;;;;;;;4.55;3.35;;;;;;;16.45;60.48;94327.06;5074790;28;20189;-69
2022/11/19 11:23:16;;;;;;;4.97;3.60;;;;;;;16.36;60.89;94328.31;5074342;28;20197;-69
2022/11/19 11:25:54;;;;;;;4.25;3.90;;;;;;;16.34;61.27;94333.50;5074939;28;20193;-69
2022/11/19 11:28:22;;;;;;;4.93;4.10;;;;;;;16.27;61.22;94330.78;5074625;28;20193;-69
2022/11/19 11:30:53;;;;;;;4.50;3.70;;;;;;;16.24;61.21;94319.66;5074269;28;20200;-69
2022/11/19 11:33:33;;;;;;;4.85;4.45;;;;;;;16.25;61.49;94324.81;5073911;28;20216;-68
2022/11/19 11:36:02;;;;;;;5.82;3.70;;;;;;;16.24;61.74;94320.47;5074506;28;20279;-69
2022/11/19 11:38:29;;;;;;;4.80;3.30;;;;;;;16.25;62.09;94316.47;5074599;28;20220;-69
2022/11/19 11:41:02;;;;;;;4.10;3.20;;;;;;;16.26;61.91;94311.69;5073874;28;20188;-69
2022/11/19 11:43:29;;;;;;;3.60;3.30;;;;;;;16.26;61.77;94312.47;5073988;28;20197;-69
2022/11/19 11:45:57;;;;;;;4.28;3.50;;;;;;;16.27;62.19;94316.88;5074093;28;20189;-69
2022/11/19 11:48:24;;;;;;;4.05;3.40;;;;;;;16.29;62.13;94320.00;5074394;28;20208;-69
2022/11/19 11:50:51;;;;;;;3.97;3.58;;;;;;;16.28;62.03;94314.88;5074397;28;20193;-69
2022/11/19 11:53:28;;;;;;;4.05;3.63;;;;;;;16.18;61.82;94313.72;5073786;28;20212;-69
2022/11/19 11:55:58;;;;;;;4.60;4.18;;;;;;;16.05;61.73;94321.78;5074364;28;20288;-69
2022/11/19 11:58:28;;;;;;;7.75;4.88;;;;;;;16.04;62.21;94324.94;5073840;28;20217;-69
2022/11/19 12:00:55;;;;;;;5.88;4.47;;;;;;;16.02;62.38;94314.25;5074148;28;20208;-69
2022/11/19 12:03:22;;;;;;;9.77;5.47;;;;;;;15.97;63.05;94320.22;5074162;28;20211;-69
2022/11/19 12:05:57;;;;;;;6.75;5.35;;;;;;;15.97;63.17;94314.66;5073977;28;20201;-69
2022/11/19 12:08:38;;;;;;;5.88;5.07;;;;;;;16.01;62.82;94312.66;5074134;28;20214;-69